Time;durP1;ratioP1;P1;durP2;ratioP2;P2;SDS_P1;SDS_P2;PMS_P1;PMS_P2;Temp;Humidity;BMP_temperature;BMP_pressure;BME280_temperature;BME280_humidity;BME280_pressure;Samples;Min_cycle;Max_cycle;Signal;HPM_P1;HPM_P2
2021/05/20 00:00:10;;;;;;;2.70;1.80;;;;;;;15.28;100.00;93346.41;4936831;29;20236;-82
2021/05/20 00:02:37;;;;;;;2.00;1.80;;;;;;;15.03;100.00;93355.00;4936979;29;20200;-82
2021/05/20 00:05:06;;;;;;;4.27;2.23;;;;;;;14.74;100.00;93239.06;4936837;29;20212;-83
2021/05/20 00:07:34;;;;;;;5.93;2.37;;;;;;;14.68;100.00;93121.13;4936919;29;20202;-82
2021/05/20 00:10:01;;;;;;;2.13;1.90;;;;;;;15.07;100.00;93082.88;4943996;28;20668;-83
2021/05/20 00:12:28;;;;;;;5.43;2.00;;;;;;;15.03;100.00;93183.09;4955925;29;20294;-83
2021/05/20 00:14:55;;;;;;;2.20;2.00;;;;;;;14.81;100.00;93270.56;4955988;28;20364;-83
2021/05/20 00:17:22;;;;;;;10.93;2.97;;;;;;;14.94;100.00;93225.13;4955824;28;20203;-83
2021/05/20 00:19:49;;;;;;;2.20;2.00;;;;;;;14.90;100.00;93205.56;4955335;28;20242;-83
2021/05/20 00:22:16;;;;;;;2.57;2.07;;;;;;;14.84;100.00;93227.72;4955597;28;20202;-82
2021/05/20 00:24:43;;;;;;;4.93;2.37;;;;;;;14.87;100.00;93263.44;4955651;28;20201;-82
2021/05/20 00:27:09;;;;;;;2.20;1.80;;;;;;;14.74;100.00;93297.22;4955738;28;20210;-82
2021/05/20 00:29:37;;;;;;;2.67;1.97;;;;;;;14.91;100.00;93243.34;4955527;29;20571;-82
2021/05/20 00:32:05;;;;;;;5.37;2.03;;;;;;;15.02;100.00;93400.22;4955562;28;20249;-83
2021/05/20 00:34:32;;;;;;;3.27;1.83;;;;;;;14.96;100.00;93416.09;4955451;28;20695;-82
2021/05/20 00:36:59;;;;;;;3.80;1.80;;;;;;;14.97;100.00;93438.03;4955438;29;20198;-82
2021/05/20 00:39:26;;;;;;;9.90;2.17;;;;;;;15.05;100.00;93397.06;4954962;28;20207;-83
2021/05/20 00:41:52;;;;;;;4.23;1.97;;;;;;;15.19;100.00;93400.84;4955437;28;20233;-83
2021/05/20 00:44:19;;;;;;;3.90;1.77;;;;;;;15.25;100.00;93391.91;4955236;28;20670;-83
2021/05/20 00:46:47;;;;;;;2.37;1.70;;;;;;;14.88;100.00;93328.50;4955639;28;20224;-83
2021/05/20 00:49:14;;;;;;;5.07;2.53;;;;;;;14.80;100.00;93328.97;4955263;29;20245;-83
2021/05/20 00:51:45;;;;;;;1.73;1.63;;;;;;;14.83;100.00;93316.03;4955061;29;20197;-82
2021/05/20 00:54:12;;;;;;;4.83;1.93;;;;;;;14.90;100.00;93356.28;4955146;29;20190;-82
2021/05/20 00:56:40;;;;;;;3.13;1.53;;;;;;;14.84;100.00;93344.06;4955683;29;20625;-82
2021/05/20 00:59:07;;;;;;;4.73;1.87;;;;;;;14.83;100.00;93326.63;4954922;28;20672;-82
2021/05/20 01:01:34;;;;;;;1.70;1.53;;;;;;;14.87;100.00;93295.97;4954971;28;20230;-82
2021/05/20 01:04:02;;;;;;;1.77;1.60;;;;;;;14.90;100.00;93371.34;4954841;28;20207;-82
2021/05/20 01:06:29;;;;;;;2.43;1.63;;;;;;;15.10;100.00;93575.16;4954979;28;20197;-82
2021/05/20 01:08:57;;;;;;;3.33;1.50;;;;;;;15.35;100.00;93614.25;4954719;29;20205;-83
2021/05/20 01:11:24;;;;;;;3.40;1.73;;;;;;;15.32;100.00;93585.63;4954728;29;20205;-82
2021/05/20 01:13:51;;;;;;;6.13;2.00;;;;;;;15.12;100.00;93559.00;4954611;29;20206;-82
2021/05/20 01:16:18;;;;;;;1.43;1.33;;;;;;;15.15;100.00;93614.06;4954769;29;20207;-83
2021/05/20 01:18:45;;;;;;;2.33;1.70;;;;;;;15.24;100.00;93543.78;4954278;28;20235;-83
2021/05/20 01:21:13;;;;;;;2.37;2.17;;;;;;;15.07;100.00;93580.94;4954412;29;20230;-83
2021/05/20 01:23:40;;;;;;;4.80;1.80;;;;;;;15.04;100.00;93549.69;4954822;28;20204;-82
2021/05/20 01:26:07;;;;;;;5.17;2.60;;;;;;;15.21;100.00;93628.94;4954684;28;20213;-83
2021/05/20 01:28:34;;;;;;;1.83;1.70;;;;;;;15.01;100.00;93705.47;4954563;29;20203;-82
2021/05/20 01:31:03;;;;;;;1.47;1.37;;;;;;;15.02;100.00;93664.72;4954534;28;20691;-82
2021/05/20 01:33:30;;;;;;;3.50;1.40;;;;;;;15.12;100.00;93705.31;4954709;28;20206;-82
2021/05/20 01:35:57;;;;;;;3.53;1.50;;;;;;;15.14;100.00;93702.44;4954415;28;20292;-82
2021/05/20 01:41:10;;;;;;;3.93;1.30;;;;;;;14.92;100.00;93621.25;4954156;28;20277;-82
2021/05/20 01:43:39;;;;;;;1.60;1.50;;;;;;;14.73;100.00;93617.38;4954127;28;20202;-82
2021/05/20 01:46:06;;;;;;;1.67;1.30;;;;;;;14.72;100.00;93602.53;4954115;28;20248;-82
2021/05/20 01:48:38;;;;;;;3.27;1.57;;;;;;;14.58;100.00;93590.75;4954369;29;20206;-82
2021/05/20 01:51:07;;;;;;;2.73;1.60;;;;;;;14.56;100.00;93614.81;4954443;29;20209;-82
2021/05/20 01:53:35;;;;;;;1.87;1.53;;;;;;;14.60;100.00;93652.13;4954016;29;20208;-82
2021/05/20 01:56:03;;;;;;;3.93;1.30;;;;;;;14.67;100.00;93656.16;4954049;28;20206;-82
2021/05/20 01:58:31;;;;;;;1.37;1.27;;;;;;;14.60;100.00;93660.84;4954017;28;20194;-82
2021/05/20 02:00:58;;;;;;;2.83;1.50;;;;;;;14.49;100.00;93599.13;4953938;29;20233;-82
2021/05/20 02:03:25;;;;;;;1.53;1.37;;;;;;;14.53;100.00;93606.59;4953962;28;20223;-82
2021/05/20 02:05:52;;;;;;;1.30;1.23;;;;;;;14.47;100.00;93643.47;4953817;28;20202;-82
2021/05/20 02:08:19;;;;;;;2.00;1.50;;;;;;;14.45;100.00;93661.44;4953935;29;20297;-82
2021/05/20 02:10:47;;;;;;;3.63;1.30;;;;;;;14.63;100.00;93639.22;4954031;29;20257;-82
2021/05/20 02:13:14;;;;;;;1.50;1.20;;;;;;;14.52;100.00;93639.34;4953780;28;20202;-82
2021/05/20 02:15:41;;;;;;;1.40;1.30;;;;;;;14.51;100.00;93625.31;4954120;29;20237;-82
2021/05/20 02:18:08;;;;;;;1.20;1.20;;;;;;;14.54;100.00;93639.88;4953343;28;20300;-82
2021/05/20 02:20:36;;;;;;;2.37;1.70;;;;;;;14.45;100.00;93637.66;4953773;28;20282;-82
2021/05/20 02:23:03;;;;;;;2.57;1.60;;;;;;;14.39;100.00;93612.22;4953644;29;20253;-82
2021/05/20 02:25:30;;;;;;;1.37;1.27;;;;;;;14.38;100.00;93609.81;4953804;29;20198;-82
2021/05/20 02:27:58;;;;;;;4.40;1.17;;;;;;;14.33;100.00;93597.34;4953843;29;20204;-81
2021/05/20 02:30:26;;;;;;;1.43;1.33;;;;;;;14.17;100.00;93569.16;4953692;29;20194;-83
2021/05/20 02:32:52;;;;;;;1.83;1.37;;;;;;;14.35;100.00;93587.34;4953747;28;20197;-82
2021/05/20 02:35:20;;;;;;;5.73;1.73;;;;;;;14.26;100.00;93612.56;4953928;28;20679;-82
2021/05/20 02:37:47;;;;;;;1.40;1.30;;;;;;;14.33;100.00;93599.19;4953937;28;20206;-82
2021/05/20 02:40:16;;;;;;;1.23;1.13;;;;;;;14.30;100.00;93594.38;4953308;28;20659;-82
2021/05/20 02:42:43;;;;;;;3.70;2.40;;;;;;;14.02;100.00;93533.59;4953600;29;20217;-82
2021/05/20 02:45:15;;;;;;;2.70;1.20;;;;;;;13.96;100.00;93508.19;4953767;29;20208;-82
2021/05/20 02:47:42;;;;;;;1.77;1.30;;;;;;;14.10;100.00;93492.75;4953918;29;20189;-83
2021/05/20 02:50:10;;;;;;;1.70;1.60;;;;;;;14.04;100.00;93499.03;4956893;28;20213;-82
2021/05/20 02:52:37;;;;;;;1.80;1.70;;;;;;;14.04;100.00;93505.09;4957366;29;20197;-82
2021/05/20 02:55:07;;;;;;;1.60;1.50;;;;;;;14.04;100.00;93491.09;4957151;28;20206;-83
2021/05/20 02:57:34;;;;;;;2.57;1.23;;;;;;;14.13;100.00;93505.47;4957745;28;20229;-83
2021/05/20 03:00:01;;;;;;;1.80;1.70;;;;;;;14.12;100.00;93474.00;4956676;28;20698;-82
2021/05/20 03:02:29;;;;;;;2.97;1.70;;;;;;;14.10;100.00;93462.88;4957237;29;20202;-83
2021/05/20 03:04:56;;;;;;;1.43;1.33;;;;;;;14.21;100.00;93468.03;4957015;28;20208;-83
2021/05/20 03:07:23;;;;;;;2.90;1.40;;;;;;;14.12;100.00;93463.44;4957261;29;20232;-82
2021/05/20 03:09:49;;;;;;;2.23;1.40;;;;;;;14.15;100.00;93457.66;4956922;29;20198;-83
2021/05/20 03:12:17;;;;;;;2.90;1.50;;;;;;;14.18;100.00;93457.16;4957598;28;20234;-83
2021/05/20 03:14:44;;;;;;;1.60;1.50;;;;;;;14.22;100.00;93490.75;4957127;28;20202;-83
2021/05/20 03:17:11;;;;;;;2.13;1.43;;;;;;;14.25;100.00;93478.91;4956693;29;20206;-83
2021/05/20 03:19:40;;;;;;;1.40;1.30;;;;;;;14.30;100.00;93502.72;4956518;29;20244;-82
2021/05/20 03:22:07;;;;;;;1.60;1.50;;;;;;;14.33;100.00;93501.44;4956861;28;20206;-82
2021/05/20 03:24:39;;;;;;;2.13;1.10;;;;;;;14.26;100.00;93491.84;4955735;28;20210;-82
2021/05/20 03:27:08;;;;;;;3.80;1.87;;;;;;;14.28;100.00;93447.50;4955725;28;20649;-82
2021/05/20 03:29:35;;;;;;;1.60;1.50;;;;;;;14.22;100.00;93424.72;4954199;28;20212;-82
2021/05/20 03:32:03;;;;;;;1.53;1.33;;;;;;;14.23;100.00;93407.81;4955682;29;20209;-83
2021/05/20 03:34:30;;;;;;;1.40;1.30;;;;;;;14.02;100.00;93351.38;4955181;28;20212;-83
2021/05/20 03:36:58;;;;;;;2.03;1.60;;;;;;;14.17;100.00;93336.72;4955491;29;20241;-83
2021/05/20 03:39:28;;;;;;;1.23;1.13;;;;;;;14.18;100.00;93346.25;4954917;28;20906;-83
2021/05/20 03:41:59;;;;;;;3.03;1.40;;;;;;;14.13;100.00;93323.22;4957225;28;20707;-85
2021/05/20 03:44:46;;;;;;;1.87;1.27;;;;;;;14.08;100.00;93317.91;4960026;28;20237;-82
2021/05/20 03:47:18;;;;;;;1.40;1.30;;;;;;;14.02;100.00;93261.59;4949414;28;20210;-83
2021/05/20 03:49:49;;;;;;;2.07;1.87;;;;;;;13.98;100.00;93235.94;4956395;29;20213;-82
2021/05/20 03:52:17;;;;;;;1.80;1.23;;;;;;;13.96;100.00;93216.94;4957521;28;20205;-82
2021/05/20 03:54:44;;;;;;;1.30;1.20;;;;;;;13.98;100.00;93194.50;4956049;29;20674;-82
2021/05/20 03:57:11;;;;;;;1.47;1.30;;;;;;;14.00;100.00;93202.97;4956471;28;20206;-82
2021/05/20 03:59:38;;;;;;;1.47;1.37;;;;;;;13.95;100.00;93158.03;4955085;28;20209;-83
2021/05/20 04:02:05;;;;;;;3.60;1.47;;;;;;;13.91;100.00;93125.28;4955749;28;20217;-83
2021/05/20 04:04:32;;;;;;;1.30;1.20;;;;;;;13.98;100.00;93149.63;4955881;29;20257;-83
2021/05/20 04:06:59;;;;;;;1.50;1.20;;;;;;;13.95;100.00;93163.31;4955920;29;20249;-82
2021/05/20 04:09:26;;;;;;;2.50;2.07;;;;;;;13.87;100.00;93195.50;4955675;28;20248;-82
2021/05/20 04:11:54;;;;;;;2.27;1.23;;;;;;;13.92;100.00;93280.00;4955621;28;20205;-82
2021/05/20 04:14:21;;;;;;;2.00;1.87;;;;;;;13.83;100.00;93291.28;4955593;28;20694;-82
2021/05/20 04:16:48;;;;;;;1.27;1.17;;;;;;;13.93;100.00;93289.53;4955950;29;20213;-83
2021/05/20 04:19:16;;;;;;;1.40;1.30;;;;;;;13.89;100.00;93306.94;4955186;28;20738;-82
2021/05/20 04:21:43;;;;;;;1.53;1.20;;;;;;;13.95;100.00;93316.47;4955772;28;20228;-83
2021/05/20 04:24:10;;;;;;;1.50;1.30;;;;;;;14.01;100.00;93314.66;4955556;28;20213;-82
2021/05/20 04:26:38;;;;;;;1.60;1.50;;;;;;;13.99;100.00;93309.66;4956062;29;20630;-82
2021/05/20 04:29:05;;;;;;;1.93;1.37;;;;;;;14.15;100.00;93315.84;4955281;28;20683;-83
2021/05/20 04:31:33;;;;;;;1.60;1.30;;;;;;;14.03;100.00;93302.81;4956270;29;20205;-83
2021/05/20 04:34:00;;;;;;;1.30;1.20;;;;;;;14.02;100.00;93285.34;4955350;28;20206;-83
2021/05/20 04:36:27;;;;;;;1.40;1.30;;;;;;;14.09;100.00;93326.59;4955855;29;20202;-82
2021/05/20 04:38:54;;;;;;;1.67;1.50;;;;;;;14.14;100.00;93326.66;4955099;29;20209;-83
2021/05/20 04:41:21;;;;;;;1.40;1.10;;;;;;;14.17;100.00;93348.09;4955622;29;20583;-83
2021/05/20 04:43:48;;;;;;;1.27;1.27;;;;;;;14.21;100.00;93380.06;4955570;29;20197;-83
2021/05/20 04:46:16;;;;;;;2.80;1.40;;;;;;;14.32;100.00;93404.72;4955665;28;20310;-82
2021/05/20 04:48:43;;;;;;;2.03;1.20;;;;;;;14.34;100.00;93439.59;4954812;29;20292;-82
2021/05/20 04:51:10;;;;;;;1.50;1.40;;;;;;;14.44;100.00;93490.72;4955339;28;20284;-82
2021/05/20 04:53:36;;;;;;;1.30;1.10;;;;;;;14.34;100.00;93511.75;4955091;28;20747;-82
2021/05/20 04:56:04;;;;;;;1.67;1.23;;;;;;;14.46;100.00;93480.69;4955223;28;20202;-83
2021/05/20 04:58:31;;;;;;;1.33;1.10;;;;;;;14.59;100.00;93527.09;4954713;28;20261;-83
2021/05/20 05:00:59;;;;;;;1.33;1.20;;;;;;;14.60;100.00;93556.97;4955607;29;20661;-83
2021/05/20 05:03:26;;;;;;;1.27;1.17;;;;;;;14.70;100.00;93541.19;4954954;28;20201;-83
2021/05/20 05:05:54;;;;;;;1.57;1.10;;;;;;;14.73;100.00;93577.72;4955347;28;20209;-82
2021/05/20 05:08:21;;;;;;;1.10;1.00;;;;;;;14.82;100.00;93531.25;4954738;29;20674;-83
2021/05/20 05:10:48;;;;;;;1.43;1.33;;;;;;;14.78;100.00;93524.06;4955000;29;20222;-82
2021/05/20 05:13:19;;;;;;;1.87;0.97;;;;;;;14.70;100.00;93453.97;4954998;28;20210;-83
2021/05/20 05:15:46;;;;;;;4.93;1.60;;;;;;;14.58;100.00;93297.38;4954801;29;20286;-84
2021/05/20 05:18:14;;;;;;;2.47;1.40;;;;;;;14.53;100.00;93268.31;4954182;28;20245;-82
2021/05/20 05:20:41;;;;;;;1.23;1.10;;;;;;;14.55;100.00;93194.81;4954575;29;20232;-82
2021/05/20 05:23:07;;;;;;;1.10;1.10;;;;;;;14.22;100.00;93080.53;4954392;28;20237;-82
2021/05/20 05:25:36;;;;;;;1.70;1.60;;;;;;;14.14;100.00;92997.31;4954322;29;20210;-82
2021/05/20 05:28:03;;;;;;;1.10;1.10;;;;;;;14.19;100.00;93018.44;4954485;28;20667;-82
2021/05/20 05:30:30;;;;;;;2.53;1.23;;;;;;;14.21;100.00;92960.09;4954512;29;20672;-82
2021/05/20 05:32:57;;;;;;;4.50;1.30;;;;;;;14.10;100.00;92974.31;4954581;28;20293;-81
2021/05/20 05:35:26;;;;;;;1.03;1.03;;;;;;;13.93;100.00;92954.22;4954698;29;20201;-84
2021/05/20 05:37:53;;;;;;;1.43;1.33;;;;;;;13.89;100.00;92900.38;4955071;28;20202;-87
2021/05/20 05:40:32;;;;;;;1.37;1.27;;;;;;;13.87;100.00;92912.25;4958794;28;20291;-82
2021/05/20 05:42:59;;;;;;;1.33;1.23;;;;;;;14.19;100.00;92935.78;4973563;28;20255;-83
2021/05/20 05:45:26;;;;;;;1.47;1.20;;;;;;;14.46;100.00;93068.47;4973221;28;20204;-82
2021/05/20 05:47:53;;;;;;;3.00;1.27;;;;;;;14.75;100.00;93105.03;4972166;28;20196;-83
2021/05/20 05:50:20;;;;;;;1.00;1.00;;;;;;;14.86;100.00;93169.28;4972122;28;20659;-84
2021/05/20 05:52:48;;;;;;;2.10;1.53;;;;;;;14.76;100.00;93203.66;4973324;28;20280;-84
2021/05/20 05:55:14;;;;;;;1.80;1.70;;;;;;;14.90;100.00;93252.34;4973035;28;20233;-85
2021/05/20 05:57:41;;;;;;;3.23;1.57;;;;;;;14.96;100.00;93294.44;4973560;28;20958;-85
2021/05/20 06:00:09;;;;;;;1.07;1.07;;;;;;;14.90;100.00;93290.16;4973410;28;20229;-84
2021/05/20 06:02:36;;;;;;;1.67;1.53;;;;;;;14.98;100.00;93339.13;4973298;28;20197;-84
2021/05/20 06:05:04;;;;;;;1.40;1.30;;;;;;;15.21;100.00;93336.06;4973307;28;20645;-84
2021/05/20 06:07:35;;;;;;;1.50;1.40;;;;;;;15.31;100.00;93384.75;4973466;28;20193;-83
2021/05/20 06:10:03;;;;;;;2.93;1.90;;;;;;;15.36;100.00;93425.28;4973261;28;20181;-83
2021/05/20 06:12:30;;;;;;;1.40;1.30;;;;;;;14.98;100.00;93394.66;4973303;28;20580;-83
2021/05/20 06:14:57;;;;;;;2.57;1.60;;;;;;;14.95;100.00;93376.66;4973244;28;20205;-84
2021/05/20 06:17:24;;;;;;;2.20;1.47;;;;;;;15.29;100.00;93408.84;4973267;28;20201;-83
2021/05/20 06:19:51;;;;;;;2.83;1.50;;;;;;;15.77;100.00;93559.75;4972828;28;20236;-83
2021/05/20 06:22:17;;;;;;;5.27;2.37;;;;;;;15.59;100.00;93535.25;4973093;28;20237;-83
2021/05/20 06:24:44;;;;;;;1.83;1.73;;;;;;;15.74;100.00;93558.41;4972622;28;20205;-82
2021/05/20 06:27:12;;;;;;;1.50;1.30;;;;;;;16.35;100.00;93632.09;4973392;28;20199;-83
2021/05/20 06:29:39;;;;;;;1.27;1.23;;;;;;;16.46;100.00;93786.72;4972931;28;20197;-83
2021/05/20 06:32:06;;;;;;;1.73;1.57;;;;;;;16.50;100.00;93832.84;4973335;28;20197;-84
2021/05/20 06:34:33;;;;;;;1.40;1.30;;;;;;;16.92;100.00;93880.63;4973224;28;20233;-84
2021/05/20 06:37:02;;;;;;;1.87;1.40;;;;;;;17.37;100.00;93943.00;4973100;28;20203;-83
2021/05/20 06:39:29;;;;;;;4.90;1.40;;;;;;;16.90;100.00;93941.09;4972991;28;20342;-84
2021/05/20 06:41:56;;;;;;;1.33;1.23;;;;;;;17.15;100.00;93918.47;4972913;28;20230;-85
2021/05/20 06:44:24;;;;;;;1.40;1.30;;;;;;;17.20;100.00;93971.56;4972859;28;20199;-84
2021/05/20 06:46:51;;;;;;;2.17;1.30;;;;;;;17.73;100.00;94028.97;4972937;28;20266;-84
2021/05/20 06:49:18;;;;;;;2.17;1.50;;;;;;;17.95;100.00;94092.66;4972880;28;20294;-84
2021/05/20 06:51:45;;;;;;;2.60;1.40;;;;;;;17.80;100.00;94159.78;4972925;28;20264;-84
2021/05/20 06:54:11;;;;;;;1.60;1.50;;;;;;;17.90;100.00;94172.34;4972795;28;20208;-84
2021/05/20 06:56:41;;;;;;;1.20;1.20;;;;;;;18.03;100.00;94176.41;4972635;28;20201;-82
2021/05/20 07:01:53;;;;;;;1.87;1.37;;;;;;;18.34;100.00;94229.78;4954362;29;20211;-83
2021/05/20 07:04:20;;;;;;;1.30;1.20;;;;;;;18.54;100.00;94278.59;4953550;28;20209;-83
2021/05/20 07:06:47;;;;;;;1.33;1.13;;;;;;;18.47;100.00;94323.25;4953747;29;20197;-84
2021/05/20 07:09:14;;;;;;;1.80;1.30;;;;;;;17.77;100.00;94292.34;4953489;29;20201;-85
2021/05/20 07:11:41;;;;;;;1.40;1.27;;;;;;;18.25;100.00;94219.66;4953501;28;20194;-84
2021/05/20 07:14:10;;;;;;;7.70;1.50;;;;;;;18.04;100.00;94196.63;4953026;28;20205;-84
2021/05/20 07:16:36;;;;;;;1.50;1.40;;;;;;;18.36;100.00;94251.59;4953505;29;20646;-86
2021/05/20 07:19:04;;;;;;;1.73;1.40;;;;;;;18.14;100.00;94337.59;4953325;28;20234;-85
2021/05/20 07:21:31;;;;;;;1.20;1.20;;;;;;;17.91;100.00;94361.81;4953698;29;20652;-85
2021/05/20 07:23:58;;;;;;;1.30;1.30;;;;;;;18.52;100.00;94371.16;4953641;29;20208;-86
2021/05/20 07:26:25;;;;;;;2.00;1.73;;;;;;;18.73;100.00;94457.28;4953553;28;20276;-85
2021/05/20 07:28:52;;;;;;;1.50;1.40;;;;;;;19.53;100.00;94478.63;4953380;28;20675;-87
2021/05/20 07:31:19;;;;;;;1.40;1.23;;;;;;;18.99;100.00;94530.19;4953705;28;20594;-84
2021/05/20 07:33:46;;;;;;;1.53;1.20;;;;;;;19.04;100.00;94542.72;4952936;29;20202;-85
2021/05/20 07:36:13;;;;;;;2.80;1.63;;;;;;;18.78;100.00;94570.97;4955454;28;20326;-85
2021/05/20 07:38:40;;;;;;;1.40;1.30;;;;;;;19.53;100.00;94534.56;4956596;28;20667;-85
2021/05/20 07:41:07;;;;;;;1.43;1.30;;;;;;;19.66;100.00;94623.97;4956529;28;20230;-86
2021/05/20 07:43:34;;;;;;;2.83;1.23;;;;;;;19.49;100.00;94643.53;4956362;29;20205;-85
2021/05/20 07:46:01;;;;;;;1.40;1.30;;;;;;;20.10;100.00;94611.19;4956681;28;20201;-84
2021/05/20 07:48:32;;;;;;;1.17;1.13;;;;;;;19.74;100.00;94670.66;4956420;28;20206;-86
2021/05/20 07:51:04;;;;;;;3.80;1.20;;;;;;;19.52;100.00;94698.19;4956425;29;20647;-86
2021/05/20 07:53:32;;;;;;;1.90;1.27;;;;;;;19.80;100.00;94736.31;4956352;28;20205;-85
2021/05/20 07:55:59;;;;;;;1.70;1.60;;;;;;;20.30;100.00;94743.91;4956335;29;20694;-86
2021/05/20 07:58:26;;;;;;;1.30;1.20;;;;;;;20.52;100.00;94759.81;4956204;28;20213;-85
2021/05/20 08:00:54;;;;;;;1.30;1.10;;;;;;;20.60;100.00;94734.50;4956172;28;20281;-86
2021/05/20 08:03:25;;;;;;;0.90;0.90;;;;;;;20.35;100.00;94751.13;4956412;28;20202;-86
2021/05/20 08:05:59;;;;;;;1.23;1.00;;;;;;;20.38;100.00;94786.09;4956353;29;20577;-85
2021/05/20 08:08:31;;;;;;;1.20;1.10;;;;;;;20.61;100.00;94816.22;4956040;29;20189;-86
2021/05/20 08:11:02;;;;;;;1.23;1.13;;;;;;;21.10;100.00;94835.44;4956107;29;20195;-86
2021/05/20 08:13:29;;;;;;;1.10;1.10;;;;;;;21.33;100.00;94890.31;4956073;28;20197;-86
2021/05/20 08:15:56;;;;;;;2.33;2.10;;;;;;;21.61;100.00;94925.78;4956001;28;20202;-86
2021/05/20 08:18:23;;;;;;;1.63;1.20;;;;;;;21.07;100.00;94916.09;4955839;28;20242;-86
2021/05/20 08:20:50;;;;;;;1.43;1.10;;;;;;;20.72;100.00;94854.44;4956288;28;20228;-86
2021/05/20 08:23:17;;;;;;;1.00;1.00;;;;;;;21.07;100.00;94877.91;4956197;28;20230;-87
2021/05/20 08:25:44;;;;;;;2.70;1.10;;;;;;;21.18;100.00;94884.13;4956192;28;20590;-86
2021/05/20 08:28:12;;;;;;;0.90;0.90;;;;;;;20.54;100.00;94927.69;4955746;29;20746;-87
2021/05/20 08:30:39;;;;;;;0.93;0.93;;;;;;;20.30;100.00;94841.81;4955812;29;20249;-86
2021/05/20 08:33:06;;;;;;;2.43;1.20;;;;;;;20.09;100.00;94849.63;4955533;28;20237;-86
2021/05/20 08:35:33;;;;;;;2.07;1.17;;;;;;;19.76;100.00;94837.31;4955591;28;20288;-86
2021/05/20 08:38:01;;;;;;;0.97;0.97;;;;;;;20.09;100.00;94892.31;4955500;28;20261;-87
2021/05/20 08:40:28;;;;;;;4.10;1.20;;;;;;;20.81;100.00;94828.84;4955694;28;20229;-87
2021/05/20 08:42:55;;;;;;;1.17;1.07;;;;;;;20.97;100.00;94872.50;4955619;28;20253;-88
2021/05/20 08:45:25;;;;;;;1.50;1.40;;;;;;;20.46;100.00;94830.19;4955746;28;20202;-86
2021/05/20 08:47:54;;;;;;;1.27;1.10;;;;;;;19.91;100.00;94817.97;4954970;28;20248;-87
2021/05/20 08:50:22;;;;;;;0.90;0.90;;;;;;;19.91;100.00;94754.78;4955436;29;20198;-87
2021/05/20 08:52:50;;;;;;;1.50;1.40;;;;;;;19.61;100.00;94787.28;4955834;28;20198;-87
2021/05/20 08:55:19;;;;;;;1.80;1.70;;;;;;;19.67;100.00;94765.00;4955479;28;20256;-87
2021/05/20 08:57:46;;;;;;;2.20;1.40;;;;;;;19.88;100.00;94863.81;4955600;28;20201;-86
2021/05/20 09:00:17;;;;;;;2.63;1.20;;;;;;;19.78;100.00;94823.72;4955150;29;20209;-87
2021/05/20 09:02:45;;;;;;;1.50;1.40;;;;;;;20.13;100.00;94802.72;4955287;29;20190;-87
2021/05/20 09:05:16;;;;;;;1.33;1.23;;;;;;;20.63;100.00;94857.56;4955385;28;20738;-87
2021/05/20 09:07:44;;;;;;;1.30;1.20;;;;;;;20.46;100.00;94861.41;4955352;28;20252;-86
2021/05/20 09:10:19;;;;;;;2.07;1.40;;;;;;;19.75;100.00;94787.72;4955392;28;20201;-86
2021/05/20 09:12:47;;;;;;;2.77;1.87;;;;;;;19.20;100.00;94759.41;4955464;28;20196;-86
2021/05/20 09:15:26;;;;;;;2.37;1.43;;;;;;;19.09;100.00;94709.75;4955060;28;20245;-87
2021/05/20 09:17:54;;;;;;;0.90;0.90;;;;;;;18.90;100.00;94719.91;4954655;28;20244;-86
2021/05/20 09:20:22;;;;;;;2.07;1.20;;;;;;;18.69;100.00;94677.03;4954801;29;20701;-87
2021/05/20 09:23:05;;;;;;;0.90;0.80;;;;;;;19.11;100.00;94657.81;4954763;28;20201;-85
2021/05/20 09:25:34;;;;;;;0.90;0.90;;;;;;;19.85;100.00;94717.69;4954804;29;20540;-85
2021/05/20 09:28:02;;;;;;;4.80;1.23;;;;;;;19.69;100.00;94836.69;4954390;28;20213;-86
2021/05/20 09:30:30;;;;;;;1.30;1.20;;;;;;;19.47;100.00;94807.38;4954630;29;20201;-85
2021/05/20 09:33:00;;;;;;;1.27;1.07;;;;;;;19.23;100.00;94772.22;4954801;28;20568;-85
2021/05/20 09:35:28;;;;;;;1.00;1.00;;;;;;;18.78;100.00;94762.63;4954763;28;20585;-86
2021/05/20 09:37:59;;;;;;;1.90;1.17;;;;;;;18.60;100.00;94694.50;4954687;29;20206;-85
2021/05/20 09:40:29;;;;;;;1.63;1.10;;;;;;;18.43;100.00;94640.53;4954441;29;20213;-86
2021/05/20 09:42:56;;;;;;;0.93;0.93;;;;;;;18.50;100.00;94559.50;4954340;29;20206;-86
2021/05/20 09:45:25;;;;;;;1.17;1.07;;;;;;;18.54;100.00;94655.56;4954462;28;20209;-86
2021/05/20 09:48:03;;;;;;;1.00;1.00;;;;;;;18.61;100.00;94620.81;4954599;29;20277;-85
2021/05/20 09:50:36;;;;;;;0.90;0.90;;;;;;;18.77;100.00;94647.38;4954524;28;20568;-85
2021/05/20 09:53:07;;;;;;;1.00;1.00;;;;;;;18.88;100.00;94628.84;4954208;29;20644;-85
2021/05/20 09:55:34;;;;;;;1.63;0.93;;;;;;;18.57;100.00;94579.78;4954836;29;20646;-87
2021/05/20 09:58:08;;;;;;;0.80;0.80;;;;;;;18.35;100.00;94468.88;4954042;28;20209;-86
2021/05/20 10:00:36;;;;;;;0.90;0.90;;;;;;;18.05;100.00;94429.50;4954236;29;20218;-86
2021/05/20 10:03:04;;;;;;;0.73;0.73;;;;;;;17.48;100.00;94473.16;4954159;28;20208;-85
2021/05/20 10:05:34;;;;;;;0.70;0.70;;;;;;;17.23;100.00;94287.75;4954336;29;20202;-85
2021/05/20 10:08:03;;;;;;;2.03;0.90;;;;;;;17.16;100.00;94227.97;4954266;28;20197;-85
2021/05/20 10:10:30;;;;;;;1.03;0.87;;;;;;;17.08;100.00;94112.44;4953999;29;20202;-85
2021/05/20 10:12:57;;;;;;;1.97;1.00;;;;;;;17.60;100.00;94087.88;4955371;28;20201;-84
2021/05/20 10:15:25;;;;;;;1.57;1.07;;;;;;;17.86;100.00;94049.00;4953836;28;20671;-83
2021/05/20 10:17:52;;;;;;;0.70;0.70;;;;;;;17.75;100.00;94053.44;4953525;28;20324;-84
2021/05/20 10:20:21;;;;;;;0.93;0.93;;;;;;;17.69;100.00;94078.38;4954187;28;20264;-84
2021/05/20 10:22:50;;;;;;;2.57;0.70;;;;;;;18.55;100.00;94079.88;4953805;28;20245;-85
2021/05/20 10:25:19;;;;;;;1.07;0.87;;;;;;;18.68;100.00;94251.53;4953733;29;20202;-83
2021/05/20 10:27:47;;;;;;;0.63;0.63;;;;;;;18.76;100.00;94355.66;4953598;29;20233;-84
2021/05/20 10:30:16;;;;;;;1.33;0.50;;;;;;;18.84;100.00;94531.91;4953804;28;20206;-83
2021/05/20 10:32:44;;;;;;;0.47;0.47;;;;;;;18.86;100.00;94705.47;4953809;29;20198;-84
2021/05/20 10:35:12;;;;;;;0.50;0.47;;;;;;;18.99;100.00;94745.03;4953538;29;20194;-83
2021/05/20 10:37:41;;;;;;;0.60;0.60;;;;;;;18.70;100.00;94736.38;4953974;29;20205;-83
2021/05/20 10:40:12;;;;;;;1.27;0.70;;;;;;;18.57;100.00;94739.41;4953595;28;20234;-85
2021/05/20 10:42:42;;;;;;;0.77;0.77;;;;;;;18.83;100.00;94724.59;4953695;29;20648;-84
2021/05/20 10:45:23;;;;;;;0.60;0.60;;;;;;;19.33;100.00;94692.41;4953546;28;20206;-85
2021/05/20 10:48:24;;;;;;;0.40;0.40;;;;;;;19.56;100.00;94787.22;4953774;28;20280;-86
2021/05/20 10:51:14;;;;;;;0.50;0.50;;;;;;;19.46;100.00;94723.16;4953807;29;20320;-85
2021/05/20 10:54:09;;;;;;;0.63;0.60;;;;;;;19.53;100.00;94806.38;4953561;29;20570;-86
2021/05/20 10:56:54;;;;;;;0.40;0.40;;;;;;;19.62;100.00;94735.59;4949812;28;20228;-86
2021/05/20 10:59:43;;;;;;;0.70;0.60;;;;;;;19.88;100.00;94845.97;4953652;28;20576;-87
2021/05/20 11:02:40;;;;;;;0.40;0.40;;;;;;;19.90;100.00;94907.84;4953963;29;20296;-87
2021/05/20 11:05:52;;;;;;;0.40;0.40;;;;;;;19.98;100.00;94847.09;4953569;29;20229;-87
2021/05/20 11:08:59;;;;;;;1.30;0.30;;;;;;;20.55;100.00;94906.09;4953300;29;20194;-87
2021/05/20 11:11:59;;;;;;;0.93;0.50;;;;;;;20.48;100.00;95116.31;4957064;29;20232;-87
2021/05/20 11:14:43;;;;;;;0.77;0.60;;;;;;;19.92;100.00;95056.94;4957567;29;20198;-85
2021/05/20 11:17:32;;;;;;;3.90;0.80;;;;;;;20.09;100.00;94936.81;4957257;28;20201;-85
2021/05/20 11:20:42;;;;;;;0.50;0.50;;;;;;;20.22;100.00;95031.69;4957353;29;20194;-85
2021/05/20 11:23:23;;;;;;;0.70;0.70;;;;;;;20.67;100.00;95013.50;4957022;29;20257;-85
2021/05/20 11:26:16;;;;;;;0.50;0.50;;;;;;;20.35;100.00;94961.91;4957384;29;20625;-85
2021/05/20 11:29:05;;;;;;;0.60;0.60;;;;;;;20.54;100.00;94991.75;4957210;28;20197;-86
2021/05/20 11:31:32;;;;;;;0.67;0.67;;;;;;;20.67;100.00;94960.13;4957033;29;20190;-86
2021/05/20 11:34:10;;;;;;;0.50;0.50;;;;;;;20.46;100.00;95009.00;4956817;28;20322;-85
2021/05/20 11:36:39;;;;;;;1.87;0.50;;;;;;;19.95;100.00;94971.91;4956951;29;20221;-86
2021/05/20 11:39:08;;;;;;;0.87;0.60;;;;;;;19.81;100.00;94948.50;4956746;29;20667;-85